Search for airport 
image banner adimage banner adimage banner ad
image banner ad

75PN - Beaver

Located in Beaver, United States

ICAO - 75PN, IATA -

Data provided by Airmate  

General information

Coordinates: N40°41'8" W80°18'36"
Elevation is 682 feet MSL.
Magnetic variation is -07° East
View others Airports in Pennsylvania

Operational data

Special qualification required
Current time UTC:
Current local time:
Weather at : KBVI - Beaver County ( 12 km )
METAR: KBVI 091655Z AUTO 07004KT 2 1/2SM -RA OVC005 04/03 A2995 RMK AO2 VIS 1 1/4V5 T00390032
TAF: KBVI 091458Z 0915/1012 10007KT 4SM -SHRA OVC015 TEMPO 0915/0918 BKN007 FM091800 08006KT 3SM SHRA OVC008 FM092200 36007KT 4SM -SHRA OVC007 FM100400 35005KT 4SM BR OVC003 FM101000 32005KT P6SM BKN010
View NOTAMs / SUP AIP / TFR affecting this airport [VIEW]
Communications frequencies: [VIEW]

Runways:

RWY identifierQFULength (ft)Width (ft)SurfaceLDA (ft)
07W5000500WATER
25W5000500WATER

Airport contact information

Address: Beaver United States

Satellite view of 75PN